ADDS METAR Data INFO
IDs: Format: Raw Decoded Include TAF

Data at: 2220 UTC 24 Jun 2018

KCKF 242215Z AUTO 32004KT 10SM CLR 34/20 A2999 RMK AO2 T03380198
KCKF 242155Z AUTO 29006KT 10SM CLR 34/20 A2999 RMK AO2 T03410198
KCKF 242135Z AUTO 30006KT 10SM CLR 35/20 A2999 RMK AO2 T03470198
KCKF 242115Z AUTO 28004KT 10SM CLR 34/20 A2999 RMK AO2 T03420195
KCKF 242055Z AUTO 30005KT 10SM CLR 35/20 A3000 RMK AO2 T03460198
KCKF 242035Z AUTO 32007KT 10SM SCT050 35/20 A3000 RMK AO2 T03460200
KCKF 242015Z AUTO 25006KT 10SM SCT050 34/20 A3001 RMK AO2 T03430198
KCKF 241955Z AUTO 27004KT 10SM SCT050 34/20 A3002 RMK AO2 T03380201
KCKF 241935Z AUTO 30008KT 10SM SCT050 34/20 A3002 RMK AO2 T03410197
KCKF 241915Z AUTO 30007KT 10SM SCT050 33/20 A3003 RMK AO2 T03320200
KCKF 241855Z AUTO 29003KT 10SM SCT060 34/20 A3004 RMK AO2 T03360199
KCKF 241835Z AUTO 32006KT 10SM SCT046 SCT060 33/21 A3005 RMK AO2 T03290206
KCKF 241815Z AUTO 32006KT 10SM SCT044 SCT055 33/21 A3006 RMK AO2 T03310207
KCKF 241755Z AUTO 30005KT 10SM SCT042 SCT049 SCT055 33/22 A3006 RMK AO2 T03270215 10327 20255
KCKF 241735Z AUTO 31005KT 10SM SCT040 SCT049 BKN065 32/21 A3007 RMK AO2 T03210209
KCKF 241715Z AUTO 28006KT 7SM SCT036 SCT044 SCT055 32/22 A3007 RMK AO2 T03220217
KCKF 241655Z AUTO 29008KT 10SM SCT036 SCT046 SCT055 31/21 A3007 RMK AO2 T03140212
KCKF 241635Z AUTO 27008KT 10SM SCT035 SCT045 32/21 A3007 RMK AO2 T03160213
KCKF 241615Z AUTO 27006KT 10SM SCT033 BKN041 BKN047 31/22 A3008 RMK AO2 T03110221
KCKF 241555Z AUTO 30007KT 10SM SCT031 SCT042 SCT060 31/22 A3009 RMK AO2 T03100223
KCKF 241535Z AUTO 27007KT 240V300 10SM CLR 31/22 A3008 RMK AO2 T03050222
KCKF 241515Z AUTO 30003KT 10SM SCT025 SCT031 SCT044 30/23 A3008 RMK AO2 T02980229
KCKF 241455Z AUTO 29006KT 10SM BKN023 BKN031 29/23 A3008 RMK AO2 T02880226
KCKF 241435Z AUTO 28005KT 10SM BKN021 29/23 A3007 RMK AO2 T02890229
KCKF 241415Z AUTO 31007KT 10SM OVC019 29/23 A3007 RMK AO2 T02860231
KCKF 241355Z AUTO 29008KT 10SM BKN017 28/23 A3007 RMK AO2 T02820232
KCKF 241335Z AUTO 30008KT 10SM BKN015 28/23 A3007 RMK AO2 T02800233
KCKF 241315Z AUTO 28007KT 10SM SCT013 28/24 A3007 RMK AO2 T02780236
KCKF 241255Z AUTO 28009KT 10SM BKN011 27/24 A3006 RMK AO2 T02690235
KCKF 241235Z AUTO 29009KT 10SM OVC011 26/24 A3006 RMK AO2 T02610235
KCKF 241215Z AUTO 27008KT 10SM BKN011 26/24 A3005 RMK AO2 T02600235
KCKF 241155Z AUTO 27007KT 10SM BKN009 26/24 A3004 RMK AO2 T02550237 10268 20245
KCKF 241135Z AUTO 26005KT 10SM BKN009 25/24 A3004 RMK AO2 T02500237
KCKF 241115Z AUTO 25006KT 10SM CLR 25/24 A3004 RMK AO2 T02480237
KCKF 241055Z AUTO 25006KT 7SM CLR 25/24 A3003 RMK AO2 T02450235
KCKF 241035Z AUTO 24004KT 10SM SCT012 25/23 A3003 RMK AO2 T02450233
KCKF 241015Z AUTO 23004KT 10SM SCT012 25/23 A3002 RMK AO2 T02460232
KCKF 240955Z AUTO 23004KT 10SM CLR 25/23 A3002 RMK AO2 T02460231
KCKF 240935Z AUTO 25004KT 10SM CLR 25/23 A3001 RMK AO2 T02450230
KCKF 240915Z AUTO 23004KT 10SM CLR 25/23 A3000 RMK AO2 T02480228
KCKF 240855Z AUTO 00000KT 10SM CLR 25/23 A3000 RMK AO2 T02510227
KCKF 240835Z AUTO 23004KT 10SM CLR 25/23 A2999 RMK AO2 T02520225
KCKF 240815Z AUTO 24005KT 10SM CLR 26/23 A2999 RMK AO2 T02550225
KCKF 240755Z AUTO 24004KT 10SM CLR 26/22 A2999 RMK AO2 T02550223
KCKF 240735Z AUTO 22004KT 10SM CLR 26/22 A2999 RMK AO2 T02550221
KCKF 240715Z AUTO 26003KT 10SM CLR 25/22 A2999 RMK AO2 T02520221
KCKF 240655Z AUTO 25004KT 10SM CLR 26/22 A2998 RMK AO2 T02600219
KCKF 240635Z AUTO 25005KT 10SM CLR 26/22 A2998 RMK AO2 T02630218
KCKF 240615Z AUTO 22005KT 10SM CLR 27/22 A2998 RMK AO2 T02660215
KCKF 240555Z AUTO 22006KT 10SM CLR 27/22 A2998 RMK AO2 T02690215 10318 20250 403410248
KCKF 240535Z AUTO 23006KT 10SM CLR 27/21 A2998 RMK AO2 T02720212
KCKF 240515Z AUTO 21006KT 10SM CLR 27/21 A2998 RMK AO2 T02730207
KCKF 240455Z AUTO 20003KT 10SM CLR 27/21 A2998 RMK AO2 T02730207
KCKF 240435Z AUTO 00000KT 10SM CLR 26/22 A2998 RMK AO2 T02610216
KCKF 240415Z AUTO 00000KT 10SM CLR 25/22 A2999 RMK AO2 T02530220
KCKF 240355Z AUTO 00000KT 10SM CLR 25/22 A2999 RMK AO2 T02510222
KCKF 240335Z AUTO 00000KT 10SM CLR 26/22 A2999 RMK AO2 T02560221
KCKF 240315Z AUTO 00000KT 10SM CLR 26/22 A2998 RMK AO2 T02570221
KCKF 240255Z AUTO 00000KT 10SM CLR 27/21 A2997 RMK AO2 T02720214
KCKF 240235Z AUTO 00000KT 10SM CLR 26/22 A2997 RMK AO2 T02630219
KCKF 240215Z AUTO 00000KT 10SM CLR 27/22 A2997 RMK AO2 T02690215
KCKF 240155Z AUTO 00000KT 10SM CLR 27/21 A2996 RMK AO2 T02680214
KCKF 240135Z AUTO 00000KT 10SM CLR 27/22 A2996 RMK AO2 T02710222
KCKF 240115Z AUTO 00000KT 10SM CLR 27/22 A2995 RMK AO2 T02730221
KCKF 240055Z AUTO 00000KT 10SM CLR 28/22 A2995 RMK AO2 T02790223
KCKF 240035Z AUTO 00000KT 10SM CLR 30/21 A2995 RMK AO2 T02990213
KCKF 240015Z AUTO 00000KT 10SM CLR 31/21 A2995 RMK AO2 T03060210
KCKF 232355Z AUTO 27004KT 10SM CLR 32/20 A2994 RMK AO2 T03190200 10341 20314
KCKF 232340Z AUTO 26004KT 10SM CLR 32/20 A2995 RMK AO2 T03220201
KCKF 232315Z AUTO 26004KT 10SM CLR 33/20 A2995 RMK AO2 T03250203
KCKF 232255Z AUTO 27005KT 10SM SCT050 33/20 A2995 RMK AO2 T03280198
KCKF 232235Z AUTO 29008KT 10SM BKN050 33/20 A2995 RMK AO2 T03290198
KCKF 232215Z AUTO 30007KT 10SM SCT050 33/20 A2994 RMK AO2 T03310197
KCKF 232155Z AUTO 26008KT 10SM SCT050 34/20 A2994 RMK AO2 T03350196
KCKF 232135Z AUTO 28009KT 10SM CLR 33/20 A2994 RMK AO2 T03330203
KCKF 232115Z AUTO 27009KT 10SM SCT049 33/20 A2994 RMK AO2 T03340200
KCKF 232055Z AUTO 30007KT 10SM SCT049 33/21 A2994 RMK AO2 T03320207
KCKF 232035Z AUTO 29010KT 10SM SCT049 34/21 A2995 RMK AO2 T03380211
KCKF 232015Z AUTO 26008KT 10SM SCT049 SCT055 34/21 A2995 RMK AO2 T03360205
KCKF 231955Z AUTO 26010G15KT 10SM SCT049 33/21 A2995 RMK AO2 T03320208
KCKF 231935Z AUTO 28009G14KT 10SM SCT070 SCT085 33/21 A2996 RMK AO2 T03310212
KCKF 231915Z AUTO 26009G16KT 10SM SCT042 SCT050 SCT060 33/21 A2997 RMK AO2 T03270212
KCKF 231855Z AUTO 28010G15KT 10SM SCT040 SCT060 SCT080 33/22 A2997 RMK AO2 T03270217
KCKF 231835Z AUTO 26010G16KT 10SM SCT040 SCT060 SCT080 33/22 A2998 RMK AO2 T03290219
KCKF 231815Z AUTO 28010G14KT 10SM BKN039 BKN047 BKN065 32/22 A2998 RMK AO2 T03210219
KCKF 231755Z AUTO 26009KT 10SM BKN039 BKN050 31/22 A2998 RMK AO2 T03140217 10323 20258
KCKF 231735Z AUTO 30010KT 10SM BKN037 BKN046 BKN050 32/22 A2999 RMK AO2 T03160220
KCKF 231715Z AUTO 26012KT 10SM BKN035 BKN045 BKN050 32/22 A2999 RMK AO2 T03150220
KCKF 231655Z AUTO 27009G15KT 10SM SCT033 SCT041 32/22 A2999 RMK AO2 T03220223
KCKF 231635Z AUTO 26011KT 10SM SCT032 SCT039 SCT050 32/22 A2999 RMK AO2 T03170222
KCKF 231615Z AUTO 25010KT 10SM SCT028 SCT038 SCT050 31/23 A3000 RMK AO2 T03080225
KCKF 231555Z AUTO 30009G16KT 10SM SCT026 SCT034 BKN040 30/23 A3000 RMK AO2 T02980226
KCKF 231535Z AUTO 28010G16KT 10SM SCT026 BKN034 BKN042 29/23 A3000 RMK AO2 T02930228
KCKF 231515Z AUTO 27011G14KT 10SM BKN024 BKN036 30/23 A3000 RMK AO2 T02970229
KCKF 231455Z AUTO 27007KT 10SM OVC021 29/23 A3001 RMK AO2 T02850234
KCKF 231435Z AUTO 28008KT 10SM BKN019 OVC025 28/23 A3001 RMK AO2 T02830233
KCKF 231415Z AUTO 26007KT 10SM BKN017 OVC026 28/23 A3000 RMK AO2 T02770234
KCKF 231355Z AUTO 26009KT 10SM OVC017 27/24 A2999 RMK AO2 T02740235
KCKF 231335Z AUTO 25008KT 10SM OVC015 27/24 A2999 RMK AO2 T02700235
KCKF 231315Z AUTO 26010G14KT 10SM OVC013 27/24 A2999 RMK AO2 T02660235
KCKF 231255Z AUTO 26008KT 10SM OVC013 26/23 A2999 RMK AO2 T02640234
KCKF 231235Z AUTO 26010KT 10SM OVC013 26/24 A2998 RMK AO2 T02610235
KCKF 231215Z AUTO 26007G14KT 10SM OVC011 26/24 A2998 RMK AO2 T02600235
KCKF 231155Z AUTO 25008G14KT 10SM BKN011 26/23 A2997 RMK AO2 T02580232 10260 20248
KCKF 231135Z AUTO 26007KT 10SM OVC011 26/23 A2996 RMK AO2 T02550232
KCKF 231115Z AUTO 25009KT 10SM BKN011 OVC021 25/23 A2995 RMK AO2 T02520232
KCKF 231055Z AUTO 25008KT 10SM OVC011 25/23 A2994 RMK AO2 T02510232
KCKF 231035Z AUTO 24009G14KT 10SM OVC011 25/23 A2994 RMK AO2 T02510231